Time;durP1;ratioP1;P1;durP2;ratioP2;P2;SDS_P1;SDS_P2;PMS_P1;PMS_P2;Temp;Humidity;BMP_temperature;BMP_pressure;BME280_temperature;BME280_humidity;BME280_pressure;Samples;Min_cycle;Max_cycle;Signal;HPM_P1;HPM_P2
2024/01/31 00:00:19;;;;;;;9.05;4.63;;;;;;;2.41;91.05;94051.81;4831143;29;20061;-78
2024/01/31 00:02:45;;;;;;;9.20;4.97;;;;;;;2.40;91.43;94052.84;4833673;29;20044;-78
2024/01/31 00:05:14;;;;;;;7.82;4.70;;;;;;;2.39;91.52;94046.09;4842593;29;20038;-79
2024/01/31 00:07:43;;;;;;;8.27;4.70;;;;;;;2.38;91.01;94047.84;4841361;29;20057;-79
2024/01/31 00:10:09;;;;;;;10.25;4.70;;;;;;;2.37;92.22;94040.31;4836796;29;20133;-77
2024/01/31 00:12:35;;;;;;;8.55;4.40;;;;;;;2.35;92.79;94034.53;4842976;29;20089;-77
2024/01/31 00:15:00;;;;;;;9.38;4.97;;;;;;;2.31;92.18;94028.16;4842071;29;20105;-78
2024/01/31 00:17:26;;;;;;;8.30;4.47;;;;;;;2.31;92.33;94033.34;4841015;29;20037;-78
2024/01/31 00:19:52;;;;;;;8.88;4.70;;;;;;;2.26;92.20;94024.38;4840745;29;20038;-78
2024/01/31 00:22:18;;;;;;;9.60;5.20;;;;;;;2.30;92.83;94032.56;4841402;29;20041;-78
2024/01/31 00:24:44;;;;;;;9.60;4.53;;;;;;;2.29;91.92;94026.56;4836724;29;20046;-78
2024/01/31 00:27:09;;;;;;;8.35;4.95;;;;;;;2.29;91.80;94018.03;4834595;29;20049;-76
2024/01/31 00:29:35;;;;;;;12.88;4.38;;;;;;;2.30;92.59;94024.78;4841747;29;20045;-78
2024/01/31 00:32:01;;;;;;;10.10;4.30;;;;;;;2.30;91.85;94019.63;4840007;29;20037;-78
2024/01/31 00:34:26;;;;;;;9.50;4.90;;;;;;;2.29;91.50;94023.97;4841868;29;20102;-78
2024/01/31 00:36:52;;;;;;;7.80;4.30;;;;;;;2.29;91.36;94023.19;4841023;29;20067;-78
2024/01/31 00:39:20;;;;;;;7.72;3.65;;;;;;;2.26;91.00;94016.63;4812978;29;20563;-78
2024/01/31 00:41:47;;;;;;;6.38;3.53;;;;;;;2.29;90.63;94018.81;4824538;29;20038;-78
2024/01/31 00:44:13;;;;;;;5.82;3.65;;;;;;;2.31;90.38;94021.22;4841214;29;20439;-75
2024/01/31 00:46:42;;;;;;;6.30;3.58;;;;;;;2.28;89.23;94019.81;4841584;29;20032;-79
2024/01/31 00:49:08;;;;;;;6.75;3.70;;;;;;;2.33;89.87;94028.78;4841350;29;20418;-77
2024/01/31 00:51:34;;;;;;;10.73;4.07;;;;;;;2.31;89.67;94023.78;4840827;29;20109;-78
2024/01/31 00:54:00;;;;;;;7.70;3.90;;;;;;;2.32;89.70;94022.81;4833349;29;20525;-77
2024/01/31 00:56:25;;;;;;;6.55;3.97;;;;;;;2.33;89.23;94028.78;4825294;29;20096;-76
2024/01/31 00:58:51;;;;;;;6.50;3.92;;;;;;;2.34;90.18;94027.75;4841883;29;20054;-79
2024/01/31 01:01:16;;;;;;;6.97;3.65;;;;;;;2.29;90.33;94031.72;4817966;29;20030;-76
2024/01/31 01:03:43;;;;;;;6.75;3.60;;;;;;;2.24;90.43;94026.38;4836185;29;20046;-78
2024/01/31 01:06:08;;;;;;;6.93;3.90;;;;;;;2.24;90.69;94026.38;4832295;29;20049;-76
2024/01/31 01:08:34;;;;;;;7.35;3.58;;;;;;;2.23;90.90;94021.38;4836213;29;20041;-78
2024/01/31 01:11:00;;;;;;;8.88;4.28;;;;;;;2.17;91.45;94020.41;4825697;29;20049;-78
2024/01/31 01:13:25;;;;;;;7.95;3.58;;;;;;;2.17;90.89;94017.81;4841924;29;20049;-79
2024/01/31 01:15:51;;;;;;;5.80;3.35;;;;;;;2.17;91.17;94012.66;4834900;29;20116;-78
2024/01/31 01:18:16;;;;;;;7.40;3.75;;;;;;;2.16;91.58;94015.41;4809173;29;20129;-78
2024/01/31 01:20:42;;;;;;;7.32;3.53;;;;;;;2.15;92.13;94014.63;4841420;29;20045;-79
2024/01/31 01:23:07;;;;;;;7.05;3.80;;;;;;;2.14;91.71;94012.22;4810145;29;20058;-79
2024/01/31 01:25:33;;;;;;;6.82;3.47;;;;;;;2.14;91.35;94013.06;4825965;29;20537;-79
2024/01/31 01:27:58;;;;;;;6.53;3.13;;;;;;;2.11;91.97;94016.00;4841081;29;20052;-77
2024/01/31 01:30:24;;;;;;;6.22;3.40;;;;;;;2.03;91.67;94000.72;4840570;29;20041;-78
2024/01/31 01:32:50;;;;;;;5.40;2.95;;;;;;;2.07;91.28;94012.22;4818890;29;20050;-77
2024/01/31 01:35:16;;;;;;;6.43;2.90;;;;;;;2.02;91.66;94012.81;4822623;29;20426;-78
2024/01/31 01:37:41;;;;;;;5.13;2.92;;;;;;;2.06;92.44;94020.97;4819936;29;20041;-79
2024/01/31 01:40:08;;;;;;;7.05;3.33;;;;;;;2.04;93.21;94020.38;4842118;29;20026;-76
2024/01/31 01:42:40;;;;;;;6.75;3.40;;;;;;;2.00;92.86;94019.16;4838912;29;20418;-77
2024/01/31 01:45:06;;;;;;;7.47;3.63;;;;;;;1.96;92.65;94002.47;4817323;29;20042;-77
2024/01/31 01:47:32;;;;;;;7.13;3.20;;;;;;;2.02;93.45;94012.03;4842337;29;20087;-76
2024/01/31 01:49:57;;;;;;;6.80;3.28;;;;;;;2.01;92.98;94011.22;4825703;29;20049;-78
2024/01/31 01:52:24;;;;;;;6.05;3.35;;;;;;;2.02;92.20;94014.59;4838282;29;20089;-79
2024/01/31 01:54:53;;;;;;;7.00;2.95;;;;;;;2.02;92.68;94012.81;4841238;29;20125;-79
2024/01/31 01:57:19;;;;;;;5.20;3.00;;;;;;;2.02;92.53;94010.22;4817370;29;20044;-76
2024/01/31 01:59:45;;;;;;;4.95;2.90;;;;;;;2.00;92.29;94003.66;4841552;29;20453;-78
2024/01/31 02:02:14;;;;;;;4.53;2.47;;;;;;;2.01;91.65;94018.19;4840761;29;20042;-76
2024/01/31 02:04:40;;;;;;;5.82;2.25;;;;;;;1.99;91.81;94004.69;4820774;29;20054;-78
2024/01/31 02:07:06;;;;;;;4.95;2.20;;;;;;;1.97;91.73;94007.44;4833533;29;20038;-78
2024/01/31 02:09:31;;;;;;;4.75;2.55;;;;;;;1.97;91.59;94001.50;4836715;29;20500;-77
2024/01/31 02:11:57;;;;;;;6.20;2.42;;;;;;;1.98;91.10;94008.22;4837873;29;20042;-78
2024/01/31 02:14:22;;;;;;;5.28;2.67;;;;;;;1.96;90.65;93995.53;4840129;29;20411;-77
2024/01/31 02:16:48;;;;;;;5.40;2.50;;;;;;;1.97;90.93;93996.31;4843836;29;20037;-78
2024/01/31 02:19:14;;;;;;;5.50;2.72;;;;;;;1.96;90.67;93984.38;4842713;29;20075;-77
2024/01/31 02:21:43;;;;;;;5.45;2.60;;;;;;;1.95;90.88;93982.81;4844498;29;20129;-78
2024/01/31 02:24:09;;;;;;;4.38;2.38;;;;;;;1.94;92.07;93986.41;4837810;29;20041;-77
2024/01/31 02:26:34;;;;;;;4.55;2.22;;;;;;;1.91;91.30;93984.19;4830743;29;20077;-78
2024/01/31 02:29:00;;;;;;;4.97;2.85;;;;;;;1.91;91.72;93981.59;4843301;29;20041;-79
2024/01/31 02:31:26;;;;;;;4.40;2.58;;;;;;;1.90;91.33;93980.81;4839590;29;20513;-78
2024/01/31 02:33:51;;;;;;;5.10;2.25;;;;;;;1.87;92.16;93974.25;4842910;29;20054;-79
2024/01/31 02:36:17;;;;;;;5.18;2.45;;;;;;;1.90;91.74;93975.66;4842716;29;20547;-78
2024/01/31 02:38:42;;;;;;;4.65;2.50;;;;;;;1.87;91.43;93969.09;4826770;29;20046;-79
2024/01/31 02:41:08;;;;;;;6.70;2.70;;;;;;;1.87;91.96;93970.88;4822146;29;20037;-78
2024/01/31 02:43:33;;;;;;;4.72;2.50;;;;;;;1.85;92.53;93973.66;4836191;29;20503;-79
2024/01/31 02:45:59;;;;;;;5.80;2.67;;;;;;;1.82;92.95;93970.66;4843537;29;20640;-79
2024/01/31 02:48:24;;;;;;;4.95;2.60;;;;;;;1.79;92.35;93974.44;4835621;29;20081;-78
2024/01/31 02:50:50;;;;;;;4.43;2.50;;;;;;;1.78;92.17;93972.84;4836391;29;20030;-78
2024/01/31 02:53:15;;;;;;;4.50;2.55;;;;;;;1.74;91.92;93955.38;4840314;29;20038;-77
2024/01/31 02:55:41;;;;;;;4.03;2.30;;;;;;;1.80;91.67;93965.69;4825867;29;20495;-79
2024/01/31 02:58:07;;;;;;;5.05;2.55;;;;;;;1.81;91.90;93962.13;4825938;29;20045;-78
2024/01/31 03:00:33;;;;;;;4.55;2.45;;;;;;;1.80;92.38;93970.88;4837842;29;20494;-78
2024/01/31 03:02:58;;;;;;;4.80;2.85;;;;;;;1.79;92.43;93979.59;4811757;29;20138;-80
2024/01/31 03:05:24;;;;;;;7.85;2.85;;;;;;;1.79;92.70;93968.47;4836732;29;20052;-78
2024/01/31 03:07:49;;;;;;;5.03;2.72;;;;;;;1.77;92.66;93966.06;4843764;29;20453;-79
2024/01/31 03:10:15;;;;;;;5.13;2.70;;;;;;;1.75;93.34;93967.28;4837911;29;20049;-78
2024/01/31 03:12:40;;;;;;;7.53;3.20;;;;;;;1.70;94.15;93969.66;4812094;29;20062;-79
2024/01/31 03:15:06;;;;;;;5.10;2.90;;;;;;;1.67;93.56;93966.47;4842608;29;20788;-78
2024/01/31 03:17:35;;;;;;;5.05;2.88;;;;;;;1.65;93.08;93958.13;4841969;29;20034;-78
2024/01/31 03:20:03;;;;;;;7.88;2.80;;;;;;;1.67;94.14;93965.66;4841159;29;20422;-78
2024/01/31 03:22:29;;;;;;;6.15;2.90;;;;;;;1.66;94.82;93959.69;4833022;29;20124;-77
2024/01/31 03:24:55;;;;;;;4.60;2.67;;;;;;;1.65;94.49;93949.59;4842839;29;20045;-78
2024/01/31 03:27:20;;;;;;;5.20;2.85;;;;;;;1.63;94.35;93943.81;4841022;29;20521;-78
2024/01/31 03:29:46;;;;;;;6.22;2.53;;;;;;;1.63;93.75;93946.41;4826064;29;20114;-78
2024/01/31 03:32:11;;;;;;;4.75;2.60;;;;;;;1.61;94.53;93941.41;4826143;29;20041;-79
2024/01/31 03:34:37;;;;;;;3.83;2.10;;;;;;;1.60;93.86;93944.19;4837748;29;20034;-78
2024/01/31 03:37:05;;;;;;;4.43;2.20;;;;;;;1.61;94.92;93938.84;4842711;29;20061;-77
2024/01/31 03:39:32;;;;;;;4.13;2.20;;;;;;;1.60;95.12;93933.84;4842652;29;20034;-79
2024/01/31 03:41:57;;;;;;;4.32;2.25;;;;;;;1.60;94.86;93931.28;4842147;29;20394;-79
2024/01/31 03:44:23;;;;;;;4.00;2.10;;;;;;;1.59;95.18;93933.06;4827506;29;20041;-79
2024/01/31 03:46:48;;;;;;;5.88;2.10;;;;;;;1.58;95.29;93935.88;4826939;29;20065;-79
2024/01/31 03:49:14;;;;;;;3.80;2.13;;;;;;;1.57;94.59;93929.09;4842953;29;20062;-80
2024/01/31 03:51:40;;;;;;;4.53;2.05;;;;;;;1.57;94.05;93935.06;4825099;29;20050;-79
2024/01/31 03:54:05;;;;;;;3.30;1.80;;;;;;;1.57;94.08;93926.50;4843049;29;20046;-78
2024/01/31 03:56:31;;;;;;;4.25;2.10;;;;;;;1.58;94.25;93936.66;4843161;29;20418;-79
2024/01/31 03:58:56;;;;;;;3.63;1.85;;;;;;;1.59;93.89;93932.28;4838332;29;20030;-78
2024/01/31 04:01:22;;;;;;;4.80;2.35;;;;;;;1.59;93.77;93933.06;4842812;29;20072;-78
2024/01/31 04:03:48;;;;;;;5.05;2.35;;;;;;;1.57;94.00;93927.31;4838149;29;20489;-79
2024/01/31 04:06:13;;;;;;;3.95;2.20;;;;;;;1.51;93.95;93933.28;4835991;29;20057;-80
2024/01/31 04:08:39;;;;;;;5.18;2.30;;;;;;;1.56;93.47;93935.25;4843380;29;20038;-78
2024/01/31 04:11:05;;;;;;;4.20;2.30;;;;;;;1.54;94.28;93932.06;4840328;29;20064;-78
2024/01/31 04:13:31;;;;;;;4.20;2.15;;;;;;;1.53;94.02;93928.72;4838739;29;20548;-80
2024/01/31 04:15:58;;;;;;;4.57;2.20;;;;;;;1.53;94.14;93927.88;4835458;29;20125;-77
2024/01/31 04:18:24;;;;;;;5.82;2.47;;;;;;;1.52;94.67;93932.25;4825891;29;20034;-79
2024/01/31 04:20:52;;;;;;;5.32;2.67;;;;;;;1.51;94.57;93927.28;4824970;29;20053;-80
2024/01/31 04:23:18;;;;;;;5.70;2.60;;;;;;;1.48;94.36;93930.28;4842894;29;20034;-78
2024/01/31 04:25:44;;;;;;;5.30;3.22;;;;;;;1.46;94.71;93933.03;4842763;29;20042;-80
2024/01/31 04:28:13;;;;;;;7.38;3.20;;;;;;;1.46;95.98;93933.03;4842272;29;20086;-78
2024/01/31 04:30:38;;;;;;;6.20;3.28;;;;;;;1.45;95.48;93932.25;4842441;29;20042;-80
2024/01/31 04:33:04;;;;;;;5.28;3.00;;;;;;;1.45;95.91;93929.66;4833054;29;20038;-79
2024/01/31 04:35:29;;;;;;;5.20;2.60;;;;;;;1.44;95.49;93930.66;4842414;29;20093;-77
2024/01/31 04:37:55;;;;;;;6.32;2.50;;;;;;;1.45;95.67;93932.25;4841076;29;20065;-78
2024/01/31 04:40:21;;;;;;;3.92;2.25;;;;;;;1.45;96.41;93929.66;4825472;29;20046;-77
2024/01/31 04:42:47;;;;;;;4.28;2.40;;;;;;;1.47;95.94;93928.69;4841679;29;20138;-79
2024/01/31 04:45:13;;;;;;;4.22;2.47;;;;;;;1.47;97.13;93928.69;4842477;29;20103;-79
2024/01/31 04:47:41;;;;;;;4.47;2.50;;;;;;;1.45;96.29;93927.09;4841929;29;20053;-78
2024/01/31 04:50:07;;;;;;;4.60;2.38;;;;;;;1.46;96.74;93933.03;4817891;29;20166;-77
2024/01/31 04:52:33;;;;;;;3.35;2.00;;;;;;;1.45;97.39;93936.63;4823127;29;20516;-80
2024/01/31 04:54:58;;;;;;;4.10;2.20;;;;;;;1.45;97.04;93937.41;4834615;29;20168;-79
2024/01/31 04:57:24;;;;;;;3.65;2.05;;;;;;;1.46;97.34;93933.03;4835105;29;20038;-79
2024/01/31 04:59:50;;;;;;;4.55;2.25;;;;;;;1.46;97.88;93933.03;4833948;29;20498;-77
2024/01/31 05:02:15;;;;;;;4.40;2.08;;;;;;;1.45;97.36;93937.41;4834313;29;20102;-79
2024/01/31 05:04:41;;;;;;;4.70;2.55;;;;;;;1.44;96.80;93940.16;4841352;29;20046;-79
2024/01/31 05:07:06;;;;;;;7.78;2.83;;;;;;;1.41;96.79;93941.34;4842243;29;20026;-79
2024/01/31 05:09:32;;;;;;;5.07;2.53;;;;;;;1.37;95.78;93935.00;4826205;29;20042;-79
2024/01/31 05:11:58;;;;;;;4.53;2.65;;;;;;;1.39;96.61;93942.53;4841285;29;20056;-80
2024/01/31 05:14:26;;;;;;;5.13;2.78;;;;;;;1.40;96.36;93939.78;4842285;29;20491;-79
2024/01/31 05:16:51;;;;;;;5.13;2.78;;;;;;;1.38;96.15;93939.19;4841078;29;20426;-80
2024/01/31 05:19:17;;;;;;;5.07;2.83;;;;;;;1.36;96.41;93942.94;4841248;29;20046;-76
2024/01/31 05:21:50;;;;;;;6.20;2.78;;;;;;;1.36;96.05;93937.78;4841119;29;20341;-78
2024/01/31 05:24:17;;;;;;;5.25;3.05;;;;;;;1.37;96.90;93945.31;4840383;29;20053;-77
2024/01/31 05:26:45;;;;;;;6.03;3.00;;;;;;;1.38;96.95;93946.13;4824889;29;20037;-80
2024/01/31 05:29:11;;;;;;;6.03;2.90;;;;;;;1.32;96.28;93942.53;4835461;29;20053;-80
2024/01/31 05:31:36;;;;;;;6.18;3.45;;;;;;;1.38;96.38;93938.38;4837113;29;20042;-79
2024/01/31 05:34:02;;;;;;;5.63;3.03;;;;;;;1.38;96.24;93941.75;4829919;29;20491;-79
2024/01/31 05:36:28;;;;;;;6.35;3.15;;;;;;;1.39;96.73;93942.53;4840250;29;20038;-77
2024/01/31 05:38:53;;;;;;;5.82;3.50;;;;;;;1.37;97.23;93945.31;4840852;29;20133;-79
2024/01/31 05:41:19;;;;;;;6.38;3.40;;;;;;;1.38;96.81;93952.09;4835412;29;20537;-81
2024/01/31 05:43:45;;;;;;;6.47;3.47;;;;;;;1.37;97.27;93944.53;4837977;29;20041;-81
2024/01/31 05:46:11;;;;;;;7.07;3.85;;;;;;;1.41;97.61;93943.94;4826450;29;20030;-80
2024/01/31 05:48:39;;;;;;;7.72;3.45;;;;;;;1.41;96.60;93941.34;4838103;29;20595;-80
2024/01/31 05:51:04;;;;;;;6.50;3.80;;;;;;;1.44;98.06;93930.66;4837144;29;20502;-80
2024/01/31 05:53:30;;;;;;;6.70;3.50;;;;;;;1.45;97.74;93945.16;4842105;29;20046;-79
2024/01/31 05:55:57;;;;;;;8.15;4.15;;;;;;;1.42;97.70;93937.81;4842961;29;20128;-80
2024/01/31 05:58:23;;;;;;;9.38;3.83;;;;;;;1.42;97.79;93940.38;4839738;29;20030;-77
2024/01/31 06:00:49;;;;;;;6.40;3.53;;;;;;;1.44;98.26;93948.72;4842024;29;20227;-78
2024/01/31 06:03:15;;;;;;;6.80;3.70;;;;;;;1.42;98.05;93948.13;4835781;29;20044;-80
2024/01/31 06:05:42;;;;;;;5.43;2.90;;;;;;;1.42;97.93;93942.97;4837750;29;20053;-81
2024/01/31 06:08:08;;;;;;;5.10;2.88;;;;;;;1.39;98.74;93940.75;4833223;29;20495;-81
2024/01/31 06:10:36;;;;;;;6.18;2.50;;;;;;;1.41;98.24;93950.88;4823709;29;20056;-81
2024/01/31 06:13:02;;;;;;;4.65;2.42;;;;;;;1.40;97.96;93944.94;4839630;29;20106;-81
2024/01/31 06:15:28;;;;;;;4.85;2.60;;;;;;;1.39;97.11;93943.34;4840920;29;20090;-80
2024/01/31 06:17:54;;;;;;;5.07;2.88;;;;;;;1.37;97.08;93940.16;4840903;29;20045;-81
2024/01/31 06:20:19;;;;;;;7.35;2.45;;;;;;;1.39;97.53;93947.72;4838172;29;20021;-81
2024/01/31 06:22:45;;;;;;;4.03;2.33;;;;;;;1.38;96.87;93948.72;4839696;29;20038;-80
2024/01/31 06:25:11;;;;;;;4.88;2.50;;;;;;;1.39;97.45;93943.34;4824727;29;20042;-79
2024/01/31 06:27:37;;;;;;;4.75;2.47;;;;;;;1.38;96.85;93941.75;4840557;29;20046;-80
2024/01/31 06:30:03;;;;;;;5.53;2.55;;;;;;;1.40;96.72;93944.94;4824523;29;20086;-79
2024/01/31 06:32:34;;;;;;;6.05;2.42;;;;;;;1.41;96.46;93945.72;4841045;29;20037;-78
2024/01/31 06:35:00;;;;;;;4.65;2.28;;;;;;;1.42;96.61;93944.75;4821876;29;20050;-78
2024/01/31 06:37:27;;;;;;;4.13;2.10;;;;;;;1.43;96.55;93943.75;4838625;29;20036;-79
2024/01/31 06:39:54;;;;;;;4.40;2.10;;;;;;;1.45;97.78;93945.16;4837278;29;20144;-80
2024/01/31 06:42:19;;;;;;;4.07;2.10;;;;;;;1.48;97.67;93940.59;4833832;29;20034;-80
2024/01/31 06:44:45;;;;;;;4.32;2.22;;;;;;;1.50;97.85;93943.78;4834921;29;20071;-79
2024/01/31 06:47:11;;;;;;;4.68;2.28;;;;;;;1.55;97.72;93942.19;4809936;29;20555;-80
2024/01/31 06:49:36;;;;;;;3.10;1.77;;;;;;;1.59;97.06;93940.03;4825089;29;20049;-79
2024/01/31 06:52:02;;;;;;;7.10;2.33;;;;;;;1.60;95.83;93933.84;4840845;29;20148;-78
2024/01/31 06:54:28;;;;;;;4.13;2.30;;;;;;;1.67;95.33;93939.84;4825303;29;20193;-78
2024/01/31 06:56:54;;;;;;;3.70;1.90;;;;;;;1.74;95.05;93948.41;4818195;29;20090;-80
2024/01/31 06:59:19;;;;;;;3.45;1.90;;;;;;;1.80;94.69;93939.88;4829093;29;20493;-80
2024/01/31 07:01:45;;;;;;;3.22;1.90;;;;;;;1.87;94.85;93940.69;4837221;29;20467;-78
2024/01/31 07:04:10;;;;;;;4.40;2.20;;;;;;;2.04;94.31;93946.25;4839971;29;20120;-80
2024/01/31 07:06:36;;;;;;;8.25;2.42;;;;;;;2.53;92.34;93949.44;4812573;29;20054;-80
2024/01/31 07:09:02;;;;;;;4.50;2.30;;;;;;;3.06;89.83;93949.34;4838843;29;20476;-81
2024/01/31 07:11:28;;;;;;;4.40;2.20;;;;;;;3.79;84.96;93948.22;4807295;29;20051;-78
2024/01/31 07:13:53;;;;;;;3.90;1.95;;;;;;;4.37;82.53;93944.66;4826133;29;20094;-80
2024/01/31 07:16:19;;;;;;;3.10;1.77;;;;;;;5.13;78.20;93950.50;4834771;29;20041;-80
2024/01/31 07:18:45;;;;;;;3.05;1.63;;;;;;;6.08;71.78;93933.56;4837390;29;20046;-81
2024/01/31 07:21:11;;;;;;;3.60;1.90;;;;;;;7.16;65.03;93939.38;4841544;29;20041;-81
2024/01/31 07:23:37;;;;;;;4.90;2.40;;;;;;;7.98;59.73;93938.34;4837166;29;20054;-81
2024/01/31 07:26:03;;;;;;;8.15;2.83;;;;;;;8.94;55.62;93946.19;4834447;29;20030;-82
2024/01/31 07:28:38;;;;;;;7.13;2.45;;;;;;;9.51;50.51;93945.88;4843431;29;20750;-80
2024/01/31 07:31:05;;;;;;;6.95;3.00;;;;;;;9.10;51.74;93952.41;4841874;29;20133;-81
2024/01/31 07:33:32;;;;;;;5.13;3.03;;;;;;;9.09;52.50;93945.59;4842233;29;20113;-81
2024/01/31 07:35:57;;;;;;;4.97;2.92;;;;;;;9.69;51.14;93947.38;4840384;29;20042;-81
2024/01/31 07:38:23;;;;;;;5.65;3.13;;;;;;;10.34;47.78;93952.78;4841161;29;20446;-81
2024/01/31 07:40:49;;;;;;;4.80;2.80;;;;;;;10.67;48.02;93958.78;4842043;29;20034;-80
2024/01/31 07:43:14;;;;;;;5.22;2.78;;;;;;;10.26;48.42;93953.19;4835429;29;20398;-81
2024/01/31 07:45:41;;;;;;;4.40;2.63;;;;;;;10.42;48.86;93954.94;4840825;29;20046;-82
2024/01/31 07:48:06;;;;;;;4.93;2.85;;;;;;;10.58;47.86;93956.66;4826815;29;20045;-81
2024/01/31 07:50:32;;;;;;;8.18;3.83;;;;;;;10.52;47.08;93962.09;4841134;29;20038;-80
2024/01/31 07:52:57;;;;;;;5.00;3.10;;;;;;;10.99;47.43;93951.69;4826150;29;20027;-81
2024/01/31 07:55:23;;;;;;;5.13;3.10;;;;;;;11.68;46.21;93952.56;4817609;29;20124;-82
2024/01/31 07:57:48;;;;;;;5.72;2.97;;;;;;;11.01;47.01;93954.88;4833215;29;20034;-82
2024/01/31 08:00:14;;;;;;;4.43;2.63;;;;;;;11.06;45.90;93945.47;4839430;29;20050;-81
2024/01/31 08:02:40;;;;;;;5.65;2.90;;;;;;;11.83;44.55;93955.25;4816294;29;20087;-81
2024/01/31 08:05:06;;;;;;;5.45;3.38;;;;;;;11.11;46.01;93946.25;4840171;29;20503;-82
2024/01/31 08:07:31;;;;;;;9.20;4.00;;;;;;;10.92;47.01;93947.69;4823883;29;20058;-82
2024/01/31 08:09:57;;;;;;;5.97;3.78;;;;;;;11.08;47.09;93953.84;4840639;29;20526;-80
2024/01/31 08:12:23;;;;;;;6.55;4.20;;;;;;;11.31;46.15;93955.28;4832385;29;20049;-81
2024/01/31 08:14:48;;;;;;;7.55;4.15;;;;;;;11.02;45.93;93945.94;4833291;29;20241;-82
2024/01/31 08:17:14;;;;;;;8.43;4.05;;;;;;;10.96;46.03;93949.56;4836962;29;20080;-82
2024/01/31 08:19:39;;;;;;;8.30;4.68;;;;;;;11.34;45.55;93952.94;4834621;29;20102;-82
2024/01/31 08:22:08;;;;;;;9.82;5.60;;;;;;;11.71;42.34;93956.50;4837995;29;20022;-82
2024/01/31 08:24:33;;;;;;;8.20;5.30;;;;;;;11.52;43.77;93958.78;4839792;29;20050;-80
2024/01/31 08:26:59;;;;;;;9.20;5.40;;;;;;;11.36;43.13;93960.56;4840041;29;20136;-80
2024/01/31 08:29:24;;;;;;;10.10;4.85;;;;;;;11.31;42.63;93966.56;4835552;29;20050;-79
2024/01/31 08:31:50;;;;;;;17.50;5.47;;;;;;;11.73;41.99;93968.34;4839981;29;20044;-81
2024/01/31 08:34:17;;;;;;;9.18;5.30;;;;;;;12.87;40.55;93968.28;4839488;29;20079;-82
2024/01/31 08:36:42;;;;;;;10.02;5.30;;;;;;;13.35;38.24;93960.09;4839366;29;20030;-81
2024/01/31 08:39:08;;;;;;;9.98;5.50;;;;;;;14.37;37.61;93972.06;4833521;29;20069;-80
2024/01/31 08:41:34;;;;;;;7.60;4.93;;;;;;;15.14;36.49;93974.13;4810974;29;20064;-82
2024/01/31 08:44:01;;;;;;;4.43;2.72;;;;;;;15.80;34.73;93962.13;4829082;29;20103;-82
2024/01/31 08:46:28;;;;;;;3.80;2.40;;;;;;;15.86;33.96;93962.84;4839403;29;20030;-82
2024/01/31 08:48:53;;;;;;;4.55;2.53;;;;;;;15.43;33.53;93954.88;4837088;29;20604;-82
2024/01/31 08:51:19;;;;;;;5.25;2.70;;;;;;;15.12;34.73;93969.13;4806435;29;20080;-81
2024/01/31 08:53:45;;;;;;;7.22;2.60;;;;;;;14.18;36.05;93969.25;4823795;29;20072;-81
2024/01/31 08:56:10;;;;;;;4.97;2.78;;;;;;;13.86;36.20;93970.44;4824111;29;20674;-82
2024/01/31 08:58:37;;;;;;;8.05;4.72;;;;;;;14.14;36.51;93973.50;4841212;29;20132;-81
2024/01/31 09:01:04;;;;;;;5.07;2.70;;;;;;;13.17;38.42;93961.44;4839891;29;20037;-81
2024/01/31 09:03:29;;;;;;;6.68;2.60;;;;;;;13.65;38.02;93963.72;4835156;29;20048;-81
2024/01/31 09:05:56;;;;;;;4.65;2.80;;;;;;;13.18;37.02;93962.22;4839624;29;20415;-80
2024/01/31 09:08:22;;;;;;;5.75;2.50;;;;;;;13.33;37.45;93970.91;4822602;29;20038;-78
2024/01/31 09:10:48;;;;;;;4.78;2.85;;;;;;;13.11;38.54;93967.75;4837871;29;20054;-80
2024/01/31 09:13:13;;;;;;;4.72;2.90;;;;;;;12.87;38.82;93970.13;4831578;29;20046;-79
2024/01/31 09:15:42;;;;;;;4.57;2.67;;;;;;;12.91;38.68;93964.06;4839315;29;20050;-78
2024/01/31 09:18:07;;;;;;;5.13;2.80;;;;;;;12.88;38.07;93969.88;4831180;29;20046;-80
2024/01/31 09:20:33;;;;;;;6.75;3.20;;;;;;;13.21;38.96;93966.94;4838336;29;20519;-78
2024/01/31 09:22:58;;;;;;;4.25;2.45;;;;;;;12.74;38.83;93963.56;4819730;29;20046;-79
2024/01/31 09:25:24;;;;;;;5.00;2.92;;;;;;;12.96;38.88;93971.16;4837546;29;20120;-79
2024/01/31 09:27:50;;;;;;;5.00;2.72;;;;;;;12.82;39.95;93975.41;4820781;29;20041;-79
2024/01/31 09:30:15;;;;;;;4.45;2.70;;;;;;;13.27;39.27;93968.50;4820686;29;20348;-80
2024/01/31 09:32:41;;;;;;;4.70;2.53;;;;;;;13.43;38.34;93970.06;4835929;29;20049;-80
2024/01/31 09:35:09;;;;;;;5.65;2.83;;;;;;;13.58;37.99;93966.63;4836672;29;20454;-80
2024/01/31 09:37:34;;;;;;;6.75;3.70;;;;;;;13.05;36.81;93969.59;4838054;29;20053;-79
2024/01/31 09:40:00;;;;;;;5.95;3.47;;;;;;;12.68;37.10;93965.41;4838213;29;20034;-76
2024/01/31 09:42:29;;;;;;;6.72;3.60;;;;;;;12.26;37.60;93976.13;4842033;29;20042;-79
2024/01/31 09:44:58;;;;;;;7.10;3.80;;;;;;;11.71;39.05;93967.81;4837155;29;20041;-79
2024/01/31 09:47:28;;;;;;;5.53;3.08;;;;;;;11.36;41.55;93977.06;4834921;29;20063;-80
2024/01/31 09:49:56;;;;;;;6.05;3.35;;;;;;;11.01;44.82;93970.59;4837258;29;20422;-78
2024/01/31 09:52:27;;;;;;;5.78;3.30;;;;;;;10.85;45.40;93981.97;4816539;29;20132;-79
2024/01/31 09:54:57;;;;;;;6.78;3.70;;;;;;;10.81;44.08;93975.69;4823134;29;20052;-80
2024/01/31 09:57:24;;;;;;;6.70;3.40;;;;;;;10.72;44.47;93971.94;4823797;29;20075;-79
2024/01/31 09:59:50;;;;;;;6.30;3.65;;;;;;;10.34;46.35;93973.72;4832265;29;20111;-79
2024/01/31 10:02:16;;;;;;;6.32;3.80;;;;;;;10.40;46.56;93959.63;4821884;29;20491;-80
2024/01/31 10:04:46;;;;;;;6.03;3.72;;;;;;;10.18;47.32;93972.75;4836549;29;20037;-81
2024/01/31 10:07:12;;;;;;;6.38;3.70;;;;;;;10.22;48.74;93971.19;4834921;29;20046;-81
2024/01/31 10:09:37;;;;;;;6.90;3.40;;;;;;;10.06;49.97;93965.03;4837284;29;20055;-80
2024/01/31 10:12:04;;;;;;;5.80;3.53;;;;;;;9.94;50.01;93967.00;4836079;29;20470;-81
2024/01/31 10:14:29;;;;;;;7.30;3.85;;;;;;;9.85;49.89;93973.72;4837056;29;20053;-80
2024/01/31 10:16:55;;;;;;;6.28;3.55;;;;;;;10.23;49.75;93974.63;4836256;29;20435;-79
2024/01/31 10:19:21;;;;;;;6.95;3.78;;;;;;;10.24;49.49;93966.50;4838547;29;20079;-79
2024/01/31 10:21:46;;;;;;;6.03;3.10;;;;;;;10.56;49.13;93961.34;4838096;29;20345;-78
2024/01/31 10:24:15;;;;;;;6.28;3.65;;;;;;;10.62;48.20;93957.72;4835464;29;20030;-80
2024/01/31 10:26:41;;;;;;;6.40;2.97;;;;;;;10.68;47.97;93955.94;4833375;29;20047;-78
2024/01/31 10:29:07;;;;;;;6.63;3.05;;;;;;;10.87;48.83;93950.31;4835976;29;20026;-80
2024/01/31 10:31:34;;;;;;;5.57;3.15;;;;;;;10.98;46.39;93944.88;4838055;29;20434;-80
2024/01/31 10:34:01;;;;;;;3.85;2.40;;;;;;;11.09;44.88;93939.69;4836614;29;20038;-80
2024/01/31 10:36:28;;;;;;;4.88;3.10;;;;;;;11.13;44.92;93946.81;4840160;29;20105;-80
2024/01/31 10:38:54;;;;;;;3.92;2.15;;;;;;;11.06;45.17;93945.47;4833739;29;20030;-80
2024/01/31 10:41:20;;;;;;;3.30;2.15;;;;;;;11.16;46.57;93941.03;4806372;29;20038;-79
2024/01/31 10:43:48;;;;;;;4.63;2.67;;;;;;;11.22;44.98;93939.25;4837338;29;20423;-80
2024/01/31 10:46:14;;;;;;;5.25;2.92;;;;;;;11.04;46.60;93940.47;4841638;29;20042;-78
2024/01/31 10:48:40;;;;;;;7.47;2.97;;;;;;;10.94;47.07;93928.09;4841707;29;20062;-78
2024/01/31 10:51:09;;;;;;;3.72;2.28;;;;;;;10.96;47.43;93930.44;4833776;29;20076;-80
2024/01/31 10:53:35;;;;;;;5.93;2.80;;;;;;;10.60;47.58;93941.47;4837207;29;20435;-80
2024/01/31 10:56:03;;;;;;;3.85;2.17;;;;;;;10.58;45.60;93935.69;4839011;29;20052;-80
2024/01/31 10:58:29;;;;;;;4.45;2.60;;;;;;;10.72;47.18;93928.22;4824300;29;20098;-80
2024/01/31 11:00:55;;;;;;;4.22;2.50;;;;;;;10.62;46.29;93931.53;4841415;29;20079;-77
2024/01/31 11:03:22;;;;;;;5.78;3.20;;;;;;;10.53;46.40;93932.25;4833481;29;20046;-80
2024/01/31 11:05:49;;;;;;;5.22;2.90;;;;;;;10.82;46.81;93927.47;4840594;29;20026;-79
2024/01/31 11:08:19;;;;;;;4.13;2.65;;;;;;;11.01;46.58;93925.22;4816563;29;20042;-77
2024/01/31 11:10:45;;;;;;;5.72;3.28;;;;;;;10.76;48.56;93921.44;4834189;29;20089;-80
2024/01/31 11:13:10;;;;;;;5.65;3.47;;;;;;;10.85;47.14;93926.97;4833715;29;20085;-80
2024/01/31 11:15:37;;;;;;;7.47;3.13;;;;;;;11.18;47.07;93917.22;4841370;29;20042;-80
2024/01/31 11:18:11;;;;;;;5.80;3.50;;;;;;;11.11;46.29;93919.28;4839882;29;20061;-80
2024/01/31 11:20:44;;;;;;;5.65;3.20;;;;;;;10.92;47.57;93924.94;4823868;29;20046;-79
2024/01/31 11:23:17;;;;;;;7.13;3.58;;;;;;;10.62;48.24;93925.50;4834219;29;20046;-76
2024/01/31 11:25:44;;;;;;;6.47;3.75;;;;;;;10.50;48.59;93930.13;4834347;29;20058;-80
2024/01/31 11:28:11;;;;;;;6.85;3.95;;;;;;;10.25;49.00;93922.84;4831804;29;20307;-80
2024/01/31 11:30:39;;;;;;;7.03;3.95;;;;;;;10.31;48.68;93906.13;4835325;29;20061;-77
2024/01/31 11:33:05;;;;;;;5.20;3.47;;;;;;;10.44;48.70;93918.81;4840658;29;20065;-80